Time;durP1;ratioP1;P1;durP2;ratioP2;P2;SDS_P1;SDS_P2;PMS_P1;PMS_P2;Temp;Humidity;BMP_temperature;BMP_pressure;BME280_temperature;BME280_humidity;BME280_pressure;Samples;Min_cycle;Max_cycle;Signal;HPM_P1;HPM_P2
2023/12/19 00:01:01;;;;;;;52.10;30.40;;;;;;;6.54;100.00;101987.73;107465;1244;59048;-81
2023/12/19 00:03:41;;;;;;;54.80;33.10;;;;;;;6.59;100.00;101986.00;107347;1251;62978;-79
2023/12/19 00:06:10;;;;;;;46.80;28.70;;;;;;;6.59;100.00;101982.00;107386;1245;61924;-78
2023/12/19 00:08:39;;;;;;;52.90;29.70;;;;;;;6.58;100.00;101982.05;107405;1252;59519;-79
2023/12/19 00:11:08;;;;;;;43.30;26.50;;;;;;;6.60;100.00;101983.88;107405;1252;63494;-78
2023/12/19 00:13:37;;;;;;;42.10;24.70;;;;;;;6.58;100.00;101987.03;107401;1245;58053;-83
2023/12/19 00:16:06;;;;;;;43.00;23.40;;;;;;;6.59;100.00;101992.04;107274;1245;57448;-83
2023/12/19 00:18:35;;;;;;;41.60;22.00;;;;;;;6.55;100.00;101993.41;107409;1244;61991;-83
2023/12/19 00:21:05;;;;;;;41.60;27.10;;;;;;;6.54;100.00;101996.38;107396;1245;72516;-78
2023/12/19 00:23:34;;;;;;;44.40;26.60;;;;;;;6.53;100.00;101994.32;107363;1245;70742;-84
2023/12/19 00:26:05;;;;;;;43.20;26.00;;;;;;;6.51;100.00;101997.36;107524;1244;74033;-77
2023/12/19 00:28:33;;;;;;;44.00;24.30;;;;;;;6.51;100.00;101998.72;107289;1245;61227;-78
2023/12/19 00:31:03;;;;;;;39.70;24.10;;;;;;;6.51;100.00;101993.18;107479;1251;61714;-78
2023/12/19 00:33:33;;;;;;;40.50;24.00;;;;;;;6.53;100.00;101993.46;107460;1243;73101;-80
2023/12/19 00:36:02;;;;;;;37.10;23.60;;;;;;;6.51;100.00;101994.42;107395;1244;71719;-78
2023/12/19 00:38:31;;;;;;;39.70;23.90;;;;;;;6.55;100.00;101992.37;107450;1251;68763;-79
2023/12/19 00:41:00;;;;;;;38.40;22.20;;;;;;;6.59;100.00;101992.72;107371;1244;72426;-79
2023/12/19 00:43:29;;;;;;;37.60;22.80;;;;;;;6.58;100.00;101988.95;107279;1244;58289;-79
2023/12/19 00:45:58;;;;;;;36.10;21.70;;;;;;;6.57;100.00;101987.95;107158;1251;57350;-77
2023/12/19 00:48:27;;;;;;;39.20;23.20;;;;;;;6.56;100.00;101988.69;107247;1245;61794;-79
2023/12/19 00:50:56;;;;;;;35.10;20.50;;;;;;;6.55;100.00;101986.84;107193;1255;72070;-78
2023/12/19 00:53:25;;;;;;;34.70;21.60;;;;;;;6.54;100.00;101988.44;107037;1244;71204;-77
2023/12/19 00:55:54;;;;;;;37.20;22.60;;;;;;;6.52;100.00;101986.41;107249;1244;74023;-78
2023/12/19 00:58:23;;;;;;;32.30;19.80;;;;;;;6.47;100.00;101988.16;107184;1245;58895;-80
2023/12/19 01:00:52;;;;;;;36.70;22.20;;;;;;;6.44;100.00;101984.98;107235;1244;59256;-80
2023/12/19 01:03:21;;;;;;;46.80;26.60;;;;;;;6.41;100.00;101989.39;107229;1245;73081;-80
2023/12/19 01:05:51;;;;;;;31.80;18.40;;;;;;;6.42;100.00;101981.94;107320;1244;72251;-79
2023/12/19 01:08:20;;;;;;;38.80;22.90;;;;;;;6.40;100.00;101979.06;107325;1251;60086;-80
2023/12/19 01:10:49;;;;;;;41.00;23.20;;;;;;;6.37;100.00;101977.42;107360;1251;62720;-80
2023/12/19 01:13:18;;;;;;;44.30;24.40;;;;;;;6.31;100.00;101978.46;107329;1244;59049;-79
2023/12/19 01:15:49;;;;;;;39.30;25.50;;;;;;;6.28;100.00;101978.77;107233;1250;58284;-79
2023/12/19 01:18:18;;;;;;;36.80;22.10;;;;;;;6.24;100.00;101979.25;107244;1241;72444;-78
2023/12/19 01:20:47;;;;;;;44.60;25.90;;;;;;;6.21;100.00;101975.20;107240;1245;62143;-80
2023/12/19 01:23:16;;;;;;;45.60;27.80;;;;;;;6.14;100.00;101975.43;107259;1245;69780;-79
2023/12/19 01:25:46;;;;;;;150.70;92.50;;;;;;;6.09;100.00;101976.64;107262;1245;75150;-77
2023/12/19 01:28:15;;;;;;;100.50;55.60;;;;;;;6.01;100.00;101979.85;107335;1244;62840;-76
2023/12/19 01:30:44;;;;;;;44.80;27.60;;;;;;;5.91;100.00;101977.21;107043;1254;61071;-78
2023/12/19 01:33:13;;;;;;;34.40;19.90;;;;;;;5.83;100.00;101976.09;107209;1254;71659;-78
2023/12/19 01:35:42;;;;;;;36.60;19.40;;;;;;;5.78;100.00;101973.64;107218;1252;61451;-78
2023/12/19 01:38:13;;;;;;;26.50;17.10;;;;;;;5.68;100.00;101971.54;107231;1243;61740;-79
2023/12/19 01:40:43;;;;;;;33.30;19.90;;;;;;;5.60;100.00;101970.42;107066;1242;63225;-76
2023/12/19 01:43:19;;;;;;;32.90;21.90;;;;;;;5.49;100.00;101968.33;107018;1245;61335;-76
2023/12/19 01:45:51;;;;;;;43.60;24.70;;;;;;;5.40;100.00;101969.99;107161;1244;60823;-76
2023/12/19 01:48:23;;;;;;;86.60;45.80;;;;;;;5.34;100.00;101966.58;107160;1254;73603;-76
2023/12/19 01:50:52;;;;;;;104.80;61.90;;;;;;;5.26;100.00;101963.51;107195;1244;71760;-82
2023/12/19 01:53:23;;;;;;;53.20;31.20;;;;;;;5.15;100.00;101962.81;107202;1252;70076;-80
2023/12/19 01:55:56;;;;;;;72.50;43.50;;;;;;;5.05;100.00;101965.02;107276;1246;63451;-82
2023/12/19 01:58:25;;;;;;;34.60;20.40;;;;;;;4.98;100.00;101964.02;107258;1251;58909;-84
2023/12/19 02:00:55;;;;;;;41.60;23.50;;;;;;;4.92;100.00;101960.57;107130;1243;58565;-77
2023/12/19 02:03:24;;;;;;;37.50;21.40;;;;;;;4.87;100.00;101958.62;107187;1245;72833;-79
2023/12/19 02:05:54;;;;;;;41.70;24.90;;;;;;;4.82;100.00;101952.37;107220;1249;61917;-80
2023/12/19 02:08:23;;;;;;;33.90;19.70;;;;;;;4.74;100.00;101952.10;107366;1245;58984;-82
2023/12/19 02:10:52;;;;;;;31.40;19.80;;;;;;;4.71;100.00;101949.74;107235;1251;63077;-81
2023/12/19 02:13:21;;;;;;;34.50;20.10;;;;;;;4.75;100.00;101943.95;107377;1244;59024;-80
2023/12/19 02:15:51;;;;;;;35.90;22.20;;;;;;;4.77;100.00;101941.48;107303;1244;58445;-79
2023/12/19 02:18:21;;;;;;;46.90;27.60;;;;;;;4.78;100.00;101939.36;107350;1244;62110;-84
2023/12/19 02:20:50;;;;;;;49.60;30.30;;;;;;;4.76;100.00;101937.53;108198;1246;61868;-81
2023/12/19 02:23:19;;;;;;;48.40;29.30;;;;;;;4.79;100.00;101939.02;108064;1245;59569;-78
2023/12/19 02:25:50;;;;;;;60.80;37.30;;;;;;;4.79;100.00;101938.33;107417;1245;63261;-80
2023/12/19 02:28:19;;;;;;;34.50;20.80;;;;;;;4.77;100.00;101933.89;107268;1244;60721;-78
2023/12/19 02:30:48;;;;;;;37.20;21.40;;;;;;;4.75;100.00;101934.30;107465;1245;59046;-79
2023/12/19 02:33:18;;;;;;;37.20;21.70;;;;;;;4.65;100.00;101928.91;107443;1245;73440;-79
2023/12/19 02:35:47;;;;;;;45.80;23.70;;;;;;;4.57;100.00;101925.14;107363;1245;62178;-81
2023/12/19 02:38:16;;;;;;;38.60;25.40;;;;;;;4.54;100.00;101927.11;107485;1244;60415;-80
2023/12/19 02:40:45;;;;;;;37.90;21.90;;;;;;;4.48;100.00;101929.87;107476;1241;64237;-81
2023/12/19 02:43:14;;;;;;;37.80;21.90;;;;;;;4.36;100.00;101932.79;107425;1244;62008;-79
2023/12/19 02:45:44;;;;;;;36.30;22.10;;;;;;;4.24;100.00;101932.77;107359;1244;60896;-77
2023/12/19 02:48:12;;;;;;;40.20;23.40;;;;;;;4.18;100.00;101929.64;107480;1244;74015;-75
2023/12/19 02:50:42;;;;;;;41.20;23.00;;;;;;;4.14;100.00;101937.34;107460;1252;72469;-81
2023/12/19 02:53:11;;;;;;;38.20;22.70;;;;;;;4.18;100.00;101934.14;107479;1242;70929;-82
2023/12/19 02:55:41;;;;;;;50.50;31.80;;;;;;;4.21;100.00;101933.54;107408;1244;74909;-82
2023/12/19 02:58:10;;;;;;;39.60;23.80;;;;;;;4.19;100.00;101929.79;107382;1255;61725;-81
2023/12/19 03:00:39;;;;;;;39.30;22.60;;;;;;;4.17;100.00;101930.52;107300;1245;58994;-82
2023/12/19 03:03:09;;;;;;;41.30;26.50;;;;;;;4.14;100.00;101933.54;107410;1241;73988;-80
2023/12/19 03:05:38;;;;;;;41.80;24.20;;;;;;;4.16;100.00;101933.32;107429;1245;62339;-79
2023/12/19 03:08:07;;;;;;;41.00;25.60;;;;;;;4.19;100.00;101933.76;107400;1245;59470;-82
2023/12/19 03:10:36;;;;;;;37.20;22.20;;;;;;;4.26;100.00;101937.19;107456;1255;62463;-81
2023/12/19 03:13:05;;;;;;;35.60;22.00;;;;;;;4.28;100.00;101932.16;107689;1245;58910;-81
2023/12/19 03:15:36;;;;;;;35.10;21.90;;;;;;;4.23;100.00;101932.27;108557;1244;60637;-81
2023/12/19 03:18:05;;;;;;;40.10;22.20;;;;;;;4.16;100.00;101928.86;107679;1244;62847;-79
2023/12/19 03:20:36;;;;;;;41.60;23.50;;;;;;;4.04;100.00;101927.25;107465;1244;62873;-84
2023/12/19 03:23:05;;;;;;;37.30;21.50;;;;;;;3.93;100.00;101929.41;107304;1242;71025;-79
2023/12/19 03:25:34;;;;;;;39.20;23.60;;;;;;;3.89;100.00;101928.31;107277;1244;74422;-81
2023/12/19 03:28:03;;;;;;;44.10;26.70;;;;;;;3.79;100.00;101924.79;107298;1244;62065;-81
2023/12/19 03:30:32;;;;;;;51.20;30.00;;;;;;;3.77;100.00;101927.95;107302;1241;59028;-82
2023/12/19 03:33:02;;;;;;;47.90;26.90;;;;;;;3.73;100.00;101928.20;107235;1245;73814;-85
2023/12/19 03:35:32;;;;;;;48.90;28.60;;;;;;;3.67;100.00;101932.13;107166;1245;70645;-82
2023/12/19 03:38:01;;;;;;;113.80;68.90;;;;;;;3.57;100.00;101922.02;107160;1241;69908;-78
2023/12/19 03:40:30;;;;;;;77.10;44.80;;;;;;;3.55;100.00;101933.45;107263;1255;71870;-78
2023/12/19 03:42:59;;;;;;;40.30;24.80;;;;;;;3.50;100.00;101933.23;107359;1241;58806;-76
2023/12/19 03:45:28;;;;;;;40.70;24.30;;;;;;;3.43;100.00;101931.52;107425;1244;57944;-77
2023/12/19 03:47:57;;;;;;;38.30;23.40;;;;;;;3.35;100.00;101931.34;107383;1255;62466;-79
2023/12/19 03:50:26;;;;;;;46.60;27.80;;;;;;;3.30;100.00;101929.91;107388;1249;61386;-80
2023/12/19 03:52:55;;;;;;;37.50;23.50;;;;;;;3.23;100.00;101925.42;107190;1245;59861;-81
2023/12/19 03:55:24;;;;;;;41.30;25.80;;;;;;;3.13;100.00;101924.09;107267;1245;63167;-81
2023/12/19 03:57:53;;;;;;;57.70;31.40;;;;;;;3.14;100.00;101922.49;107248;1244;58961;-80
2023/12/19 04:00:22;;;;;;;52.20;28.00;;;;;;;3.15;100.00;101924.20;107169;1245;58584;-76
2023/12/19 04:02:51;;;;;;;74.40;37.10;;;;;;;3.06;100.00;101922.70;107262;1245;62893;-82
2023/12/19 04:05:20;;;;;;;44.20;25.40;;;;;;;2.94;100.00;101911.09;107268;1255;61717;-79
2023/12/19 04:07:49;;;;;;;39.40;24.30;;;;;;;2.89;100.00;101916.69;107243;1245;59907;-77
2023/12/19 04:10:18;;;;;;;41.80;24.60;;;;;;;2.84;100.00;101920.42;107234;1244;63534;-78
2023/12/19 04:12:47;;;;;;;37.70;23.10;;;;;;;2.76;100.00;101915.77;107207;1244;61073;-78
2023/12/19 04:15:16;;;;;;;50.30;28.10;;;;;;;2.66;100.00;101909.77;107169;1245;61704;-75
2023/12/19 04:17:45;;;;;;;46.40;24.50;;;;;;;2.59;100.00;101903.56;107324;1244;73544;-79
2023/12/19 04:20:15;;;;;;;37.40;23.90;;;;;;;2.54;100.00;101907.11;107234;1246;72469;-77
2023/12/19 04:22:43;;;;;;;37.40;22.10;;;;;;;2.46;100.00;101904.85;107374;1245;70328;-77
2023/12/19 04:25:13;;;;;;;37.80;22.50;;;;;;;2.44;100.00;101898.36;107332;1245;63917;-77
2023/12/19 04:27:42;;;;;;;36.10;20.50;;;;;;;2.38;100.00;101898.45;107316;1241;58961;-76
2023/12/19 04:30:12;;;;;;;35.10;18.90;;;;;;;2.30;100.00;101911.17;107168;1245;57410;-78
2023/12/19 04:32:41;;;;;;;38.00;22.20;;;;;;;2.24;100.00;101918.84;107352;1244;73231;-77
2023/12/19 04:35:11;;;;;;;33.90;20.40;;;;;;;2.26;100.00;101922.77;107236;1246;61993;-79
2023/12/19 04:37:40;;;;;;;38.80;22.00;;;;;;;2.24;100.00;101920.40;107282;1241;70763;-80
2023/12/19 04:40:10;;;;;;;37.70;21.70;;;;;;;2.26;100.00;101917.95;106965;1248;63146;-81
2023/12/19 04:42:39;;;;;;;32.30;19.40;;;;;;;2.28;100.00;101919.98;107176;1243;61587;-77
2023/12/19 04:45:09;;;;;;;32.40;18.60;;;;;;;2.29;100.00;101921.50;107188;1245;59003;-77
2023/12/19 04:47:38;;;;;;;33.40;19.90;;;;;;;2.24;100.00;101924.68;107172;1242;72160;-79
2023/12/19 04:50:08;;;;;;;32.80;22.00;;;;;;;2.24;100.00;101925.03;107201;1245;61704;-77
2023/12/19 04:52:38;;;;;;;39.70;24.00;;;;;;;2.25;100.00;101927.09;107187;1244;59980;-79
2023/12/19 04:55:08;;;;;;;41.40;25.30;;;;;;;2.23;100.00;101925.91;107196;1252;63011;-80
2023/12/19 04:57:37;;;;;;;39.20;22.80;;;;;;;2.24;100.00;101922.96;107185;1244;59113;-81
2023/12/19 05:00:08;;;;;;;35.50;21.90;;;;;;;2.25;100.00;101922.09;107106;1252;59079;-80
2023/12/19 05:02:37;;;;;;;33.50;20.00;;;;;;;2.25;100.00;101927.40;107227;1244;72166;-79
2023/12/19 05:05:07;;;;;;;34.20;20.30;;;;;;;2.26;100.00;101925.67;107283;1244;61378;-81
2023/12/19 05:07:36;;;;;;;36.80;20.70;;;;;;;2.26;100.00;101922.42;107317;1241;68650;-79
2023/12/19 05:10:08;;;;;;;31.60;18.90;;;;;;;2.32;100.00;101915.94;107227;1255;73514;-80
2023/12/19 05:12:38;;;;;;;32.10;19.30;;;;;;;2.36;100.00;101913.11;107179;1242;60533;-80
2023/12/19 05:15:08;;;;;;;35.70;20.50;;;;;;;2.36;100.00;101912.60;107294;1244;58953;-80
2023/12/19 05:17:37;;;;;;;36.20;20.70;;;;;;;2.35;100.00;101914.69;107440;1255;72838;-80
2023/12/19 05:20:07;;;;;;;35.20;21.10;;;;;;;2.30;100.00;101916.33;107211;1244;69275;-78
2023/12/19 05:22:36;;;;;;;32.60;21.10;;;;;;;2.26;100.00;101912.63;107342;1255;59438;-76
2023/12/19 05:25:07;;;;;;;33.50;20.40;;;;;;;2.27;100.00;101918.95;107364;1245;62476;-75
2023/12/19 05:27:36;;;;;;;33.00;20.30;;;;;;;2.24;100.00;101919.54;107340;1245;61012;-74
2023/12/19 05:30:07;;;;;;;33.80;20.30;;;;;;;2.13;100.00;101913.89;107365;1245;62575;-72
2023/12/19 05:32:36;;;;;;;37.80;22.40;;;;;;;2.08;100.00;101919.48;107372;1244;71322;-72
2023/12/19 05:35:06;;;;;;;38.20;23.80;;;;;;;2.09;100.00;101922.71;107235;1246;61089;-72
2023/12/19 05:37:37;;;;;;;35.80;22.90;;;;;;;2.13;100.00;101920.77;107380;1245;70098;-73
2023/12/19 05:40:08;;;;;;;34.20;21.10;;;;;;;2.11;100.00;101922.52;107384;1245;74852;-77
2023/12/19 05:42:37;;;;;;;32.30;20.60;;;;;;;2.04;100.00;101926.77;107444;1245;58789;-76
2023/12/19 05:45:07;;;;;;;30.90;19.30;;;;;;;1.96;100.00;101926.23;107457;1245;57604;-76
2023/12/19 05:47:37;;;;;;;33.80;20.30;;;;;;;2.03;100.00;101924.38;107333;1255;63339;-76
2023/12/19 05:50:07;;;;;;;31.40;18.60;;;;;;;2.09;100.00;101926.52;107477;1255;61404;-75
2023/12/19 05:52:36;;;;;;;31.80;19.20;;;;;;;2.19;100.00;101921.70;107485;1242;60056;-76
2023/12/19 05:55:05;;;;;;;36.00;21.30;;;;;;;2.29;100.00;101918.75;107486;1245;62522;-75
2023/12/19 05:57:36;;;;;;;37.80;20.90;;;;;;;2.34;100.00;101921.92;107475;1243;61076;-76
2023/12/19 06:00:07;;;;;;;31.80;19.10;;;;;;;2.35;100.00;101916.58;107511;1254;57439;-77
2023/12/19 06:02:38;;;;;;;35.30;20.00;;;;;;;2.40;100.00;101915.45;107508;1245;62922;-78
2023/12/19 06:05:08;;;;;;;37.00;21.20;;;;;;;2.48;100.00;101910.14;107416;1244;72465;-78
2023/12/19 06:07:37;;;;;;;36.40;20.80;;;;;;;2.49;100.00;101906.84;107405;1245;70685;-78
2023/12/19 06:10:12;;;;;;;39.30;24.00;;;;;;;2.50;100.00;101906.14;107341;1252;74069;-76
2023/12/19 06:12:41;;;;;;;41.70;24.30;;;;;;;2.49;100.00;101906.69;107398;1248;57545;-78
2023/12/19 06:15:14;;;;;;;42.90;24.00;;;;;;;2.52;100.00;101901.80;107383;1241;58993;-77
2023/12/19 06:17:46;;;;;;;38.60;22.00;;;;;;;2.58;100.00;101902.53;107356;1255;62342;-75
2023/12/19 06:20:15;;;;;;;46.40;25.20;;;;;;;2.65;100.00;101902.05;107441;1245;61384;-77
2023/12/19 06:22:44;;;;;;;46.30;25.70;;;;;;;2.74;100.00;101897.41;107510;1244;70586;-76
2023/12/19 06:25:14;;;;;;;46.20;25.10;;;;;;;2.84;100.00;101900.81;107396;1252;73472;-73
2023/12/19 06:27:44;;;;;;;51.70;29.40;;;;;;;2.94;100.00;101899.21;107432;1244;62579;-76
2023/12/19 06:30:14;;;;;;;46.20;26.80;;;;;;;3.11;100.00;101897.64;107313;1241;60114;-75
2023/12/19 06:32:55;;;;;;;36.80;21.70;;;;;;;3.24;100.00;101888.89;107483;1255;62489;-74
2023/12/19 06:35:28;;;;;;;43.50;23.90;;;;;;;3.32;100.00;101890.95;107370;1245;72125;-74
2023/12/19 06:37:57;;;;;;;44.70;23.50;;;;;;;3.41;100.00;101886.09;107428;1245;59749;-75
2023/12/19 06:40:26;;;;;;;46.60;25.70;;;;;;;3.53;100.00;101885.09;107339;1245;71791;-74
2023/12/19 06:42:55;;;;;;;46.40;26.80;;;;;;;3.53;100.00;101882.02;109584;1244;57697;-74
2023/12/19 06:45:24;;;;;;;44.50;25.40;;;;;;;3.52;100.00;101881.52;108861;1245;57421;-75
2023/12/19 06:47:54;;;;;;;43.20;21.90;;;;;;;3.56;100.00;101880.39;107318;1244;73050;-75
2023/12/19 06:50:24;;;;;;;39.70;22.20;;;;;;;3.61;100.00;101878.54;107363;1244;72170;-76
2023/12/19 06:52:54;;;;;;;37.00;22.40;;;;;;;3.66;100.00;101873.41;107398;1245;69046;-75
2023/12/19 06:55:24;;;;;;;36.70;22.90;;;;;;;3.68;100.00;101870.95;107493;1245;63703;-75
2023/12/19 06:57:55;;;;;;;32.90;20.20;;;;;;;3.74;100.00;101869.60;107386;1245;61821;-76
2023/12/19 07:00:24;;;;;;;35.30;20.40;;;;;;;3.80;100.00;101873.40;107358;1245;58872;-72
2023/12/19 07:02:53;;;;;;;40.30;24.20;;;;;;;3.93;100.00;101875.13;107529;1245;63328;-74
2023/12/19 07:05:22;;;;;;;50.10;27.60;;;;;;;4.09;100.00;101868.52;107230;1248;60846;-75
2023/12/19 07:07:51;;;;;;;44.30;25.00;;;;;;;4.31;100.00;101863.94;107199;1248;68631;-80
2023/12/19 07:10:20;;;;;;;43.70;25.60;;;;;;;4.52;100.00;101858.16;107428;1242;75010;-77
2023/12/19 07:12:50;;;;;;;41.20;25.00;;;;;;;4.70;100.00;101851.58;107468;1244;62302;-78
2023/12/19 07:15:19;;;;;;;41.40;23.80;;;;;;;4.86;100.00;101845.24;107553;1242;59121;-79
2023/12/19 07:17:48;;;;;;;42.70;24.60;;;;;;;5.07;100.00;101839.25;107547;1245;63147;-80
2023/12/19 07:20:18;;;;;;;37.40;24.90;;;;;;;5.25;100.00;101835.41;107585;1248;62088;-81
2023/12/19 07:22:47;;;;;;;43.90;25.70;;;;;;;5.40;100.00;101839.39;107619;1241;69641;-81
2023/12/19 07:25:15;;;;;;;42.40;25.10;;;;;;;5.49;100.00;101846.17;107569;1244;74584;-80
2023/12/19 07:27:44;;;;;;;45.30;24.50;;;;;;;5.55;100.00;101848.91;107406;1245;59017;-80
2023/12/19 07:30:14;;;;;;;41.70;24.30;;;;;;;5.57;100.00;101857.84;107556;1241;58976;-76
2023/12/19 07:32:43;;;;;;;40.10;25.30;;;;;;;5.58;100.00;101847.96;107524;1245;62689;-77
2023/12/19 07:35:14;;;;;;;36.70;23.10;;;;;;;5.62;100.00;101848.51;107694;1244;63763;-73
2023/12/19 07:37:43;;;;;;;40.70;22.20;;;;;;;5.70;100.00;101843.91;107545;1245;70693;-84
2023/12/19 07:40:12;;;;;;;38.90;22.00;;;;;;;5.78;100.00;101844.52;107670;1245;73155;-76
2023/12/19 07:42:44;;;;;;;41.00;22.10;;;;;;;5.84;100.00;101841.88;107432;1255;62502;-80
2023/12/19 07:45:13;;;;;;;38.60;22.20;;;;;;;5.94;100.00;101835.16;107420;1248;61569;-77
2023/12/19 07:47:42;;;;;;;44.90;22.80;;;;;;;6.08;100.00;101830.16;107492;1245;63413;-76
2023/12/19 07:50:11;;;;;;;41.20;22.70;;;;;;;6.20;100.00;101828.90;107446;1244;60636;-79
2023/12/19 07:52:40;;;;;;;36.30;20.80;;;;;;;6.35;100.00;101827.66;107381;1248;59801;-83
2023/12/19 07:55:10;;;;;;;32.30;19.70;;;;;;;6.48;100.00;101824.90;107261;1248;72952;-80
2023/12/19 07:57:39;;;;;;;31.90;19.50;;;;;;;6.57;100.00;101818.85;107194;1247;61016;-79
2023/12/19 08:00:11;;;;;;;37.80;19.70;;;;;;;6.67;100.00;101819.87;107308;1245;61073;-83
2023/12/19 08:02:42;;;;;;;32.30;21.00;;;;;;;6.78;100.00;101817.01;107351;1245;73904;-80
2023/12/19 08:05:12;;;;;;;35.60;20.70;;;;;;;6.90;100.00;101815.86;107347;1245;72697;-79
2023/12/19 08:07:41;;;;;;;39.50;21.80;;;;;;;7.01;100.00;101806.25;107424;1256;60104;-84
2023/12/19 08:10:10;;;;;;;40.60;21.40;;;;;;;7.15;100.00;101803.75;107536;1249;63114;-86
2023/12/19 08:12:39;;;;;;;39.20;21.00;;;;;;;7.30;100.00;101798.46;107712;1245;58979;-84
2023/12/19 08:15:10;;;;;;;36.10;22.00;;;;;;;7.42;100.00;101787.57;107291;1244;59102;-81
2023/12/19 08:17:39;;;;;;;39.40;24.10;;;;;;;7.46;100.00;101789.12;107376;1256;62125;-78
2023/12/19 08:20:10;;;;;;;39.20;22.60;;;;;;;7.53;100.00;101792.83;107372;1245;60915;-81
2023/12/19 08:22:39;;;;;;;35.50;21.90;;;;;;;7.62;100.00;101789.11;107230;1247;59960;-79
2023/12/19 08:25:11;;;;;;;44.50;24.10;;;;;;;7.74;100.00;101776.65;107246;1250;63152;-80
2023/12/19 08:28:14;;;;;;;;;;;;;;;;;;;;;
2023/12/19 08:30:52;;;;;;;36.30;20.30;;;;;;;8.05;100.00;101768.52;107498;1248;59134;-83
2023/12/19 08:33:21;;;;;;;27.20;17.70;;;;;;;8.12;100.00;101761.24;107685;1245;62966;-82
2023/12/19 08:35:56;;;;;;;21.20;14.30;;;;;;;8.15;100.00;101755.58;107714;1244;60773;-84
2023/12/19 08:38:26;;;;;;;22.90;13.10;;;;;;;8.28;100.00;101743.73;107736;1248;69736;-83
2023/12/19 08:40:58;;;;;;;27.20;14.60;;;;;;;8.52;100.00;101743.48;108544;1244;73595;-84
2023/12/19 08:43:34;;;;;;;25.40;13.00;;;;;;;8.86;100.00;101741.99;108361;1244;59766;-82
2023/12/19 08:46:07;;;;;;;25.70;13.50;;;;;;;9.09;100.00;101737.22;108080;1246;60614;-82
2023/12/19 08:48:49;;;;;;;21.80;12.40;;;;;;;9.28;100.00;101739.41;107844;1243;73273;-85
2023/12/19 08:51:32;;;;;;;22.70;13.00;;;;;;;9.56;100.00;101738.65;107835;1244;73483;-87
2023/12/19 08:54:04;;;;;;;20.80;13.20;;;;;;;9.71;100.00;101737.87;107361;1244;71101;-82
2023/12/19 08:56:33;;;;;;;22.90;13.10;;;;;;;9.79;100.00;101740.27;107507;1245;63683;-82
2023/12/19 08:59:21;;;;;;;23.60;13.30;;;;;;;9.98;100.00;101744.62;107671;1245;61389;-83
2023/12/19 09:01:53;;;;;;;22.80;13.80;;;;;;;9.97;100.00;101742.60;107674;1244;59023;-83
2023/12/19 09:04:25;;;;;;;22.00;13.00;;;;;;;9.94;100.00;101739.11;107450;1245;62988;-84
2023/12/19 09:06:54;;;;;;;20.70;13.40;;;;;;;10.10;100.00;101730.77;107524;1245;71758;-83
2023/12/19 09:09:24;;;;;;;29.00;14.80;;;;;;;10.21;100.00;101719.56;103453;1245;5386864;-76
2023/12/19 09:11:54;;;;;;;33.90;15.50;;;;;;;10.17;100.00;101710.38;107387;1245;74033;-79
2023/12/19 09:14:28;;;;;;;25.20;14.80;;;;;;;10.38;100.00;101708.91;107558;1241;60635;-75
2023/12/19 09:16:56;;;;;;;30.00;14.90;;;;;;;10.62;100.00;101704.23;107428;1253;60845;-80
2023/12/19 09:19:26;;;;;;;25.10;13.80;;;;;;;10.80;100.00;101699.52;107424;1243;64496;-80
2023/12/19 09:21:55;;;;;;;23.40;13.70;;;;;;;10.98;100.00;101689.26;107606;1242;60878;-83
2023/12/19 09:24:30;;;;;;;24.70;13.00;;;;;;;11.11;100.00;101668.09;107510;1245;60002;-78
2023/12/19 09:26:59;;;;;;;27.90;14.00;;;;;;;11.18;100.00;101666.81;107411;1241;62461;-79
2023/12/19 09:29:28;;;;;;;21.50;11.70;;;;;;;11.29;100.00;101666.11;107538;1244;59085;-78
2023/12/19 09:32:00;;;;;;;19.20;11.10;;;;;;;11.22;100.00;101664.31;107594;1244;58971;-80
2023/12/19 09:34:29;;;;;;;22.70;12.20;;;;;;;11.18;100.00;101667.52;107571;1245;62154;-77
2023/12/19 09:36:58;;;;;;;28.10;12.50;;;;;;;11.17;100.00;101662.17;107540;1242;61781;-78
2023/12/19 09:39:27;;;;;;;22.10;12.30;;;;;;;10.88;100.00;101657.95;107500;1245;60556;-81
2023/12/19 09:41:58;;;;;;;18.10;10.50;;;;;;;10.93;100.00;101653.30;107418;1254;64315;-75
2023/12/19 09:45:02;;;;;;;25.50;11.50;;;;;;;10.74;100.00;101656.84;107457;1245;60424;-79
2023/12/19 09:47:40;;;;;;;14.30;8.40;;;;;;;10.63;100.00;101652.95;107269;1254;60843;-76
2023/12/19 09:50:17;;;;;;;12.60;7.50;;;;;;;10.72;100.00;101646.88;107199;1247;73907;-77
2023/12/19 09:52:49;;;;;;;12.70;7.10;;;;;;;10.83;100.00;101650.70;107369;1241;72337;-77
2023/12/19 09:55:33;;;;;;;10.80;6.50;;;;;;;10.74;100.00;101639.77;107385;1253;68316;-78
2023/12/19 09:58:05;;;;;;;13.20;7.00;;;;;;;10.86;100.00;101632.43;107298;1245;73046;-77
2023/12/19 10:00:44;;;;;;;12.30;7.30;;;;;;;10.92;100.00;101629.64;107465;1245;60163;-76
2023/12/19 10:03:18;;;;;;;19.10;8.90;;;;;;;10.97;100.00;101629.86;107460;1246;59055;-76
2023/12/19 10:17:29;;;;;;;15.10;9.80;;;;;;;11.13;100.00;101624.57;104076;1284;602519;-81
2023/12/19 10:20:13;;;;;;;18.80;10.60;;;;;;;11.00;100.00;101592.95;107156;1249;58869;-81
2023/12/19 10:23:09;;;;;;;20.90;9.50;;;;;;;11.28;100.00;101617.19;106912;1254;59123;-81
2023/12/19 10:25:38;;;;;;;16.40;8.90;;;;;;;11.40;100.00;101616.99;107013;1248;60560;-85
2023/12/19 10:28:27;;;;;;;17.50;9.10;;;;;;;11.57;100.00;101621.70;107022;1248;71941;-84
2023/12/19 10:31:15;;;;;;;15.10;8.90;;;;;;;11.85;100.00;101630.80;103603;1247;4299085;-80
2023/12/19 10:34:38;;;;;;;16.90;9.30;;;;;;;12.17;100.00;101625.07;107043;1256;72648;-83
2023/12/19 10:37:23;;;;;;;15.80;8.40;;;;;;;12.43;100.00;101622.36;107256;1245;59345;-84
2023/12/19 10:40:19;;;;;;;15.70;8.60;;;;;;;12.77;100.00;101614.48;107409;1244;60024;-81
2023/12/19 10:43:10;;;;;;;15.20;9.60;;;;;;;13.06;100.00;101606.77;107355;1247;71711;-86
2023/12/19 10:45:39;;;;;;;14.80;9.40;;;;;;;13.37;100.00;101602.35;107365;1248;72606;-87
2023/12/19 10:48:09;;;;;;;17.60;10.30;;;;;;;13.66;100.00;101599.59;107265;1248;70747;-85
2023/12/19 10:50:45;;;;;;;18.80;10.60;;;;;;;13.71;99.39;101596.65;107307;1247;73556;-82
2023/12/19 10:53:15;;;;;;;16.00;10.20;;;;;;;13.87;99.13;101592.89;107140;1243;59040;-84
2023/12/19 10:55:55;;;;;;;13.70;9.40;;;;;;;14.06;99.05;101587.27;107312;1244;61437;-86
2023/12/19 10:58:53;;;;;;;13.20;7.90;;;;;;;13.67;92.50;101577.66;107548;1243;72465;-85
2023/12/19 11:01:45;;;;;;;12.50;7.80;;;;;;;13.86;94.03;101572.77;107042;1250;62133;-80
2023/12/19 11:04:26;;;;;;;11.50;8.20;;;;;;;14.30;95.49;101570.23;106945;1245;70995;-72
2023/12/19 11:07:15;;;;;;;16.30;10.40;;;;;;;14.29;92.53;101563.67;106888;1251;62943;-72
2023/12/19 11:09:55;;;;;;;16.00;10.20;;;;;;;14.32;92.15;101556.45;107004;1247;61621;-84
2023/12/19 11:12:37;;;;;;;16.20;10.00;;;;;;;13.81;93.81;101544.96;107450;1246;58587;-85
2023/12/19 11:15:10;;;;;;;15.50;9.40;;;;;;;13.54;94.18;101535.38;107477;1243;61540;-82
2023/12/19 11:17:48;;;;;;;;;;;;;;;13.53;94.88;101528.59;107164;1248;61474;-85
2023/12/19 11:20:45;;;;;;;15.30;9.30;;;;;;;13.77;94.89;101521.77;109456;1242;70474;-82
2023/12/19 11:23:46;;;;;;;17.20;9.60;;;;;;;13.81;93.37;101515.04;109215;1247;74256;-83
2023/12/19 11:26:34;;;;;;;14.10;9.20;;;;;;;13.68;93.09;101504.80;109453;1243;57681;-81
2023/12/19 11:29:44;;;;;;;16.40;8.80;;;;;;;13.61;93.28;101498.80;109179;1242;60453;-81
2023/12/19 11:32:33;;;;;;;13.40;8.00;;;;;;;13.73;94.77;101490.59;109463;1243;62369;-81
2023/12/19 11:35:13;;;;;;;13.80;8.70;;;;;;;14.31;91.73;101487.10;109490;1243;71416;-82